Time;durP1;ratioP1;P1;durP2;ratioP2;P2;SDS_P1;SDS_P2;PMS_P1;PMS_P2;Temp;Humidity;BMP_temperature;BMP_pressure;BME280_temperature;BME280_humidity;BME280_pressure;Samples;Min_cycle;Max_cycle;Signal;HPM_P1;HPM_P2
2022/12/02 00:02:30;;;;;;;;;;;;;;;9.02;52.88;101435.44;4977981;28;6868;-70
2022/12/02 00:05:24;;;;;;;;;;;;;;;9.03;53.67;101438.91;4980154;28;7046;-72
2022/12/02 00:07:50;;;;;;;;;;;;;;;9.03;53.57;101432.09;4979875;28;6820;-71
2022/12/02 00:10:24;;;;;;;;;;;;;;;9.04;53.23;101427.88;4979054;28;6895;-72
2022/12/02 00:12:50;;;;;;;;;;;;;;;9.05;53.13;101422.00;4986229;28;6800;-71
2022/12/02 00:15:37;;;;;;;;;;;;;;;9.05;53.03;101423.66;4976820;28;6820;-72
2022/12/02 00:18:03;;;;;;;;;;;;;;;9.05;53.60;101426.22;4974128;28;6816;-72
2022/12/02 00:20:29;;;;;;;;;;;;;;;9.05;53.92;101423.66;4975691;28;6811;-71
2022/12/02 00:22:55;;;;;;;;;;;;;;;9.03;53.68;101421.88;4972977;28;6795;-71
2022/12/02 00:25:20;;;;;;;;;;;;;;;9.04;53.98;101422.78;4978143;28;6919;-71
2022/12/02 00:27:46;;;;;;;;;;;;;;;9.04;52.87;101415.09;4977759;28;7630;-72
2022/12/02 00:30:12;;;;;;;;;;;;;;;9.02;53.14;101403.84;4978461;28;6784;-71
2022/12/02 00:32:38;;;;;;;;;;;;;;;9.01;53.33;101413.22;4970879;28;6809;-71
2022/12/02 00:35:04;;;;;;;;;;;;;;;9.02;52.92;101402.19;4977563;28;6848;-71
2022/12/02 00:37:29;;;;;;;;;;;;;;;9.00;53.03;101403.75;4969839;28;6999;-71
2022/12/02 00:39:55;;;;;;;;;;;;;;;9.02;53.51;101402.19;4974262;28;6776;-71
2022/12/02 00:42:21;;;;;;;;;;;;;;;9.02;53.85;101397.09;4983025;28;6768;-72
2022/12/02 00:47:30;;;;;;;;;;;;;;;9.02;53.41;101402.19;4972277;28;6816;-70
2022/12/02 00:49:56;;;;;;;;;;;;;;;9.04;52.78;101389.53;4972289;28;7141;-70
2022/12/02 00:52:22;;;;;;;;;;;;;;;9.05;52.51;101396.41;4972810;28;6776;-71
2022/12/02 00:54:47;;;;;;;;;;;;;;;9.06;53.63;101389.63;4972269;28;6784;-71
2022/12/02 00:57:13;;;;;;;;;;;;;;;9.07;53.00;101396.50;4974528;28;6859;-71
2022/12/02 00:59:38;;;;;;;;;;;;;;;9.06;52.67;101394.72;4971116;28;6780;-71
2022/12/02 01:02:04;;;;;;;;;;;;;;;9.06;52.97;101392.19;4967164;28;6780;-71
2022/12/02 01:04:30;;;;;;;;;;;;;;;9.05;53.53;101391.31;4970572;28;6772;-72
2022/12/02 01:06:55;;;;;;;;;;;;;;;9.05;53.04;101387.84;4973397;28;6768;-72
2022/12/02 01:09:21;;;;;;;;;;;;;;;9.05;52.78;101380.19;4978447;28;6835;-71
2022/12/02 01:11:46;;;;;;;;;;;;;;;9.03;52.80;101380.09;4971604;28;7155;-71
2022/12/02 01:14:12;;;;;;;;;;;;;;;9.02;52.99;101384.28;4969823;28;6787;-72
2022/12/02 01:16:38;;;;;;;;;;;;;;;9.02;53.24;101376.63;4970711;28;6779;-71
2022/12/02 01:19:03;;;;;;;;;;;;;;;9.02;52.58;101381.75;4974026;28;6784;-71
2022/12/02 01:21:29;;;;;;;;;;;;;;;9.02;53.69;101368.94;4993032;28;8664;-70
2022/12/02 01:23:54;;;;;;;;;;;;;;;9.02;52.68;101374.06;4976083;28;6783;-71
2022/12/02 01:26:20;;;;;;;;;;;;;;;9.04;53.59;101371.63;4972946;28;6832;-71
2022/12/02 01:28:46;;;;;;;;;;;;;;;9.05;52.69;101369.94;4971825;28;6788;-71
2022/12/02 01:31:13;;;;;;;;;;;;;;;9.08;53.13;101377.81;4970192;28;7132;-72
2022/12/02 01:33:40;;;;;;;;;;;;;;;9.08;52.53;101367.59;4973629;28;6800;-72
2022/12/02 01:36:06;;;;;;;;;;;;;;;9.09;53.55;101370.25;4972179;28;6804;-71
2022/12/02 01:38:32;;;;;;;;;;;;;;;9.10;53.82;101374.59;4971418;28;6856;-73
2022/12/02 01:40:58;;;;;;;;;;;;;;;9.11;53.45;101367.81;4968386;28;7189;-71
2022/12/02 01:43:25;;;;;;;;;;;;;;;9.10;53.02;101371.16;4972774;28;6800;-71
2022/12/02 01:45:51;;;;;;;;;;;;;;;9.11;53.31;101360.16;4971166;28;6780;-71
2022/12/02 01:48:18;;;;;;;;;;;;;;;9.12;52.79;101369.59;4969098;28;6796;-72
2022/12/02 01:50:44;;;;;;;;;;;;;;;9.13;52.92;101367.16;4967618;28;8647;-70
2022/12/02 01:53:10;;;;;;;;;;;;;;;9.13;52.95;101368.81;4976082;28;6795;-72
2022/12/02 01:55:36;;;;;;;;;;;;;;;9.13;53.44;101369.72;4975315;28;6804;-72
2022/12/02 01:58:02;;;;;;;;;;;;;;;9.13;53.95;101377.38;4972717;28;6780;-72
2022/12/02 02:00:28;;;;;;;;;;;;;;;9.12;53.50;101361.91;4964955;28;6867;-70
2022/12/02 02:02:54;;;;;;;;;;;;;;;9.11;53.36;101366.13;4965801;28;6772;-72
2022/12/02 02:05:29;;;;;;;;;;;;;;;9.12;53.06;101367.03;4987865;28;6796;-72
2022/12/02 02:08:06;;;;;;;;;;;;;;;9.14;53.15;101370.59;4975181;28;8684;-71
2022/12/02 02:10:34;;;;;;;;;;;;;;;9.13;53.33;101369.72;4977116;28;6815;-71
2022/12/02 02:13:01;;;;;;;;;;;;;;;9.14;53.02;101368.94;4985629;28;7015;-71
2022/12/02 02:15:27;;;;;;;;;;;;;;;9.14;52.75;101361.25;4989461;28;6868;-71
2022/12/02 02:17:55;;;;;;;;;;;;;;;9.17;52.97;101356.34;4975056;28;8526;-70
2022/12/02 02:20:24;;;;;;;;;;;;;;;9.19;53.81;101360.66;4975031;28;6832;-71
2022/12/02 02:23:05;;;;;;;;;;;;;;;9.20;52.89;101355.66;4976620;28;7170;-71
2022/12/02 02:25:42;;;;;;;;;;;;;;;9.22;53.96;101361.78;4975861;28;6799;-71
2022/12/02 02:28:08;;;;;;;;;;;;;;;9.24;52.70;101352.53;4974906;28;6875;-72
2022/12/02 02:30:36;;;;;;;;;;;;;;;9.26;52.92;101350.97;4970690;28;7003;-72
2022/12/02 02:33:06;;;;;;;;;;;;;;;9.27;53.42;101341.63;4969933;28;6792;-71
2022/12/02 02:35:38;;;;;;;;;;;;;;;9.29;53.17;101338.41;4989363;28;6967;-71
2022/12/02 02:38:08;;;;;;;;;;;;;;;9.31;53.81;101333.38;4981127;28;6808;-72
2022/12/02 02:40:34;;;;;;;;;;;;;;;9.28;53.60;101334.06;4975901;28;6827;-72
2022/12/02 02:43:02;;;;;;;;;;;;;;;9.29;53.14;101340.97;4976698;28;6828;-70
2022/12/02 02:45:34;;;;;;;;;;;;;;;9.26;52.82;101335.59;4976524;28;6856;-71
2022/12/02 02:48:04;;;;;;;;;;;;;;;9.24;53.19;101338.88;4975914;28;6802;-70
2022/12/02 02:50:31;;;;;;;;;;;;;;;9.21;53.24;101338.63;4979341;28;7204;-70
2022/12/02 02:52:57;;;;;;;;;;;;;;;9.19;53.13;101342.75;4976483;28;6814;-71
2022/12/02 02:55:26;;;;;;;;;;;;;;;9.15;53.83;101345.13;4982375;28;7086;-71
2022/12/02 02:57:53;;;;;;;;;;;;;;;9.13;53.30;101336.47;4975869;28;6792;-71
2022/12/02 03:00:21;;;;;;;;;;;;;;;9.11;53.56;101332.88;4974297;28;6884;-72
2022/12/02 03:02:54;;;;;;;;;;;;;;;9.08;53.02;101331.78;4975053;28;6796;-70
2022/12/02 03:05:21;;;;;;;;;;;;;;;9.06;53.02;101320.56;4957773;28;8756;-72
2022/12/02 03:07:49;;;;;;;;;;;;;;;9.07;53.10;101319.78;4978152;28;7239;-71
2022/12/02 03:10:15;;;;;;;;;;;;;;;9.05;52.70;101313.69;4979488;28;7046;-71
2022/12/02 03:12:41;;;;;;;;;;;;;;;9.03;52.99;101316.16;4971839;28;6843;-70
2022/12/02 03:15:08;;;;;;;;;;;;;;;9.02;53.52;101317.81;4973631;28;6771;-71
2022/12/02 03:17:35;;;;;;;;;;;;;;;9.00;53.16;101315.91;4986192;28;6844;-70
2022/12/02 03:20:01;;;;;;;;;;;;;;;8.96;52.66;101317.38;4975202;28;8083;-70
2022/12/02 03:22:28;;;;;;;;;;;;;;;8.95;54.06;101312.19;4978687;28;6792;-70
2022/12/02 03:24:55;;;;;;;;;;;;;;;8.96;52.87;101309.69;4973745;28;6784;-70
2022/12/02 03:27:21;;;;;;;;;;;;;;;8.97;53.21;101305.50;4992924;28;7074;-72
2022/12/02 03:29:47;;;;;;;;;;;;;;;8.98;53.90;101313.28;4977485;28;6787;-70
2022/12/02 03:32:14;;;;;;;;;;;;;;;8.97;53.95;101311.47;4974207;28;6796;-70
2022/12/02 03:34:41;;;;;;;;;;;;;;;8.96;53.08;101303.72;4972889;28;6941;-70
2022/12/02 03:37:09;;;;;;;;;;;;;;;8.94;53.52;101300.19;4974471;28;6803;-72
2022/12/02 03:39:36;;;;;;;;;;;;;;;8.93;52.55;101296.72;4957180;28;6962;-71
2022/12/02 03:42:02;;;;;;;;;;;;;;;8.92;53.62;101300.06;4972816;28;6884;-70
2022/12/02 03:44:28;;;;;;;;;;;;;;;8.89;53.35;101297.31;4974179;28;6816;-72
2022/12/02 03:46:54;;;;;;;;;;;;;;;8.87;52.87;101298.84;4975634;28;6780;-71
2022/12/02 03:49:22;;;;;;;;;;;;;;;8.84;53.04;101302.09;4968993;28;10500;-71
2022/12/02 03:51:48;;;;;;;;;;;;;;;8.84;53.23;101293.53;4979312;28;6808;-70
2022/12/02 03:54:15;;;;;;;;;;;;;;;8.85;53.90;101292.75;4974971;28;6792;-73
2022/12/02 03:56:42;;;;;;;;;;;;;;;8.83;53.15;101289.19;4970755;28;6876;-74
2022/12/02 03:59:17;;;;;;;;;;;;;;;8.84;53.49;101293.53;4979207;28;6801;-72
2022/12/02 04:01:43;;;;;;;;;;;;;;;8.83;53.93;101284.09;4982318;28;8955;-72
2022/12/02 04:04:08;;;;;;;;;;;;;;;8.81;54.19;101290.75;4980076;28;6779;-71
2022/12/02 04:06:34;;;;;;;;;;;;;;;8.80;53.30;101294.09;4980074;28;7016;-72
2022/12/02 04:08:59;;;;;;;;;;;;;;;8.78;53.74;101286.31;4979090;28;6791;-71
2022/12/02 04:11:25;;;;;;;;;;;;;;;8.79;53.40;101285.53;4975353;28;6788;-72
2022/12/02 04:13:51;;;;;;;;;;;;;;;8.79;53.03;101284.63;4972727;28;6832;-72
2022/12/02 04:16:16;;;;;;;;;;;;;;;8.78;53.41;101275.19;4975933;28;6862;-71
2022/12/02 04:18:42;;;;;;;;;;;;;;;8.76;54.12;101277.66;4977512;28;6840;-71
2022/12/02 04:21:08;;;;;;;;;;;;;;;8.77;53.53;101270.88;4976769;28;8393;-71
2022/12/02 04:23:33;;;;;;;;;;;;;;;8.75;53.39;101263.97;4972285;28;7268;-72
2022/12/02 04:25:59;;;;;;;;;;;;;;;8.73;53.16;101251.88;4975410;28;6792;-71
2022/12/02 04:28:25;;;;;;;;;;;;;;;8.71;53.19;101258.56;4962578;28;7905;-71
2022/12/02 04:30:50;;;;;;;;;;;;;;;8.69;53.46;101260.13;4970879;28;8498;-71
2022/12/02 04:33:16;;;;;;;;;;;;;;;8.66;54.05;101265.03;4970980;28;6991;-72
2022/12/02 04:35:42;;;;;;;;;;;;;;;8.60;52.93;101258.69;4992158;28;6836;-72
2022/12/02 04:38:07;;;;;;;;;;;;;;;8.54;53.44;101255.69;4964814;28;6840;-71
2022/12/02 04:40:33;;;;;;;;;;;;;;;8.52;53.91;101256.41;4972496;28;7673;-71
2022/12/02 04:42:58;;;;;;;;;;;;;;;8.49;53.50;101264.69;4973900;28;6844;-72
2022/12/02 04:45:24;;;;;;;;;;;;;;;8.46;53.71;101265.34;4969042;28;7321;-71
2022/12/02 04:47:50;;;;;;;;;;;;;;;8.43;54.24;101270.25;4970483;28;6954;-72
2022/12/02 04:50:15;;;;;;;;;;;;;;;8.39;53.73;101268.25;4967095;28;6768;-72
2022/12/02 04:52:41;;;;;;;;;;;;;;;8.34;53.39;101264.50;4970643;28;8598;-72
2022/12/02 04:55:07;;;;;;;;;;;;;;;8.30;53.83;101257.38;4969634;28;7832;-71
2022/12/02 04:57:33;;;;;;;;;;;;;;;8.27;53.40;101250.41;4974099;28;7032;-72
2022/12/02 04:59:59;;;;;;;;;;;;;;;8.27;54.03;101252.06;4968674;28;8467;-71
2022/12/02 05:02:24;;;;;;;;;;;;;;;8.26;54.46;101246.09;4962757;28;6868;-72
2022/12/02 05:04:50;;;;;;;;;;;;;;;8.27;53.96;101252.06;4966603;28;6779;-71
2022/12/02 05:07:16;;;;;;;;;;;;;;;8.26;53.88;101246.09;4955885;28;8979;-71
2022/12/02 05:09:42;;;;;;;;;;;;;;;8.27;54.45;101247.88;4964816;28;6787;-71
2022/12/02 05:12:07;;;;;;;;;;;;;;;8.28;54.68;101244.53;4968319;28;6772;-71
2022/12/02 05:14:33;;;;;;;;;;;;;;;8.28;54.79;101239.41;4974135;28;7102;-71
2022/12/02 05:16:58;;;;;;;;;;;;;;;8.28;54.62;101241.97;4985266;28;8485;-71
2022/12/02 05:19:24;;;;;;;;;;;;;;;8.25;54.29;101234.06;4970445;28;6843;-71
2022/12/02 05:21:50;;;;;;;;;;;;;;;8.24;54.37;101231.44;4971440;28;8020;-71
2022/12/02 05:24:16;;;;;;;;;;;;;;;8.22;53.75;101233.88;4973420;28;6868;-72
2022/12/02 05:26:41;;;;;;;;;;;;;;;8.21;53.39;101234.66;4969843;28;6831;-72
2022/12/02 05:29:07;;;;;;;;;;;;;;;8.19;53.29;101231.09;4970462;28;6783;-71
2022/12/02 05:31:33;;;;;;;;;;;;;;;8.18;54.25;101226.78;4975942;28;6787;-71
2022/12/02 05:33:58;;;;;;;;;;;;;;;8.18;54.45;101224.22;4969799;28;6987;-71
2022/12/02 05:36:24;;;;;;;;;;;;;;;8.17;53.34;101220.78;4991171;28;6838;-71
2022/12/02 05:38:49;;;;;;;;;;;;;;;8.18;53.22;101216.56;4971091;28;7911;-71
2022/12/02 05:41:15;;;;;;;;;;;;;;;8.19;53.98;101218.34;4968550;28;6835;-71
2022/12/02 05:43:42;;;;;;;;;;;;;;;8.18;54.59;101225.09;4971674;28;7222;-71
2022/12/02 05:46:18;;;;;;;;;;;;;;;8.20;54.32;101228.63;4985709;28;6954;-71
2022/12/02 05:48:45;;;;;;;;;;;;;;;8.20;53.91;101236.28;4971256;28;6792;-71
2022/12/02 05:51:18;;;;;;;;;;;;;;;8.22;53.69;101233.00;4970711;28;6975;-71
2022/12/02 05:53:46;;;;;;;;;;;;;;;8.22;53.72;101238.09;4974808;28;7231;-71
2022/12/02 05:56:25;;;;;;;;;;;;;;;8.22;53.59;101238.09;4971082;28;6947;-71
2022/12/02 05:58:51;;;;;;;;;;;;;;;8.23;53.34;101237.31;4974390;28;8978;-71
2022/12/02 06:01:36;;;;;;;;;;;;;;;8.25;53.77;101225.53;4991739;28;6932;-71
2022/12/02 06:04:13;;;;;;;;;;;;;;;8.25;53.02;101233.19;4977241;28;6808;-72
2022/12/02 06:06:40;;;;;;;;;;;;;;;8.25;53.50;101233.19;4980726;28;6832;-72
2022/12/02 06:09:16;;;;;;;;;;;;;;;8.26;53.57;101220.56;4977083;28;7195;-71
2022/12/02 06:11:45;;;;;;;;;;;;;;;8.27;53.95;101216.31;4980225;28;6991;-71
2022/12/02 06:14:24;;;;;;;;;;;;;;;8.29;54.09;101220.75;4961799;28;8825;-71
2022/12/02 06:16:59;;;;;;;;;;;;;;;8.30;54.41;101219.06;4958448;28;8643;-72
2022/12/02 06:19:52;;;;;;;;;;;;;;;8.33;53.89;101221.88;4969858;28;6797;-72
2022/12/02 06:22:31;;;;;;;;;;;;;;;8.36;53.64;101222.06;4973137;28;7155;-72
2022/12/02 06:25:00;;;;;;;;;;;;;;;8.33;54.32;101222.72;4968142;28;6816;-71
2022/12/02 06:27:28;;;;;;;;;;;;;;;8.31;53.25;101225.97;4965263;28;10260;-72
2022/12/02 06:30:00;;;;;;;;;;;;;;;8.30;53.23;101226.72;4970649;28;6827;-72
2022/12/02 06:32:52;;;;;;;;;;;;;;;8.26;54.06;101219.66;4961747;28;6921;-71
2022/12/02 06:35:28;;;;;;;;;;;;;;;8.24;53.34;101223.75;4973404;28;6904;-71
2022/12/02 06:38:10;;;;;;;;;;;;;;;8.23;54.40;101225.41;4969189;28;6882;-72
2022/12/02 06:40:36;;;;;;;;;;;;;;;8.19;54.48;101223.44;4982271;28;7235;-72
2022/12/02 06:43:14;;;;;;;;;;;;;;;8.19;53.62;101228.56;4968915;28;7069;-72
2022/12/02 06:45:41;;;;;;;;;;;;;;;8.20;53.33;101220.97;4976914;28;6816;-71
2022/12/02 06:48:35;;;;;;;;;;;;;;;8.19;54.29;101228.56;4970130;28;6859;-72
2022/12/02 06:51:18;;;;;;;;;;;;;;;8.17;53.52;101219.91;4974553;28;6789;-72
2022/12/02 06:53:45;;;;;;;;;;;;;;;8.16;53.82;101224.09;4960862;28;8363;-72
2022/12/02 06:56:21;;;;;;;;;;;;;;;8.15;53.98;101217.22;4971703;28;6800;-71
2022/12/02 06:58:57;;;;;;;;;;;;;;;8.15;53.37;101216.31;4969710;28;6804;-72
2022/12/02 07:01:32;;;;;;;;;;;;;;;8.13;53.44;101223.91;4968173;28;7904;-72
2022/12/02 07:04:16;;;;;;;;;;;;;;;8.13;54.18;101221.34;4970624;28;7760;-72
2022/12/02 07:06:45;;;;;;;;;;;;;;;8.12;53.24;101227.22;4973294;28;6823;-72
2022/12/02 07:09:41;;;;;;;;;;;;;;;8.14;54.60;101232.44;5000018;28;7755;-72
2022/12/02 07:12:41;;;;;;;;;;;;;;;8.13;54.42;101228.09;4981738;28;6812;-72
2022/12/02 07:15:29;;;;;;;;;;;;;;;8.14;54.11;101224.75;4972241;28;6804;-72
2022/12/02 07:18:18;;;;;;;;;;;;;;;8.14;53.96;101223.13;4977116;28;7259;-72
2022/12/02 07:20:46;;;;;;;;;;;;;;;8.15;54.31;101227.44;4974730;28;7652;-72
2022/12/02 07:23:19;;;;;;;;;;;;;;;8.18;53.24;101229.34;4972238;28;6792;-71
2022/12/02 07:25:49;;;;;;;;;;;;;;;8.19;54.09;101229.41;4972564;28;6905;-72
2022/12/02 07:28:42;;;;;;;;;;;;;;;8.20;54.27;101231.19;4972243;28;6799;-72
2022/12/02 07:31:29;;;;;;;;;;;;;;;8.20;53.51;101228.63;4987799;28;6876;-71
2022/12/02 07:33:55;;;;;;;;;;;;;;;8.23;54.13;101229.66;4965973;28;7008;-71
2022/12/02 07:36:20;;;;;;;;;;;;;;;8.26;53.39;101230.75;4972534;28;6855;-71
2022/12/02 07:38:46;;;;;;;;;;;;;;;8.29;54.70;101227.50;4970446;28;6791;-72
2022/12/02 07:41:15;;;;;;;;;;;;;;;8.31;54.41;101225.97;4969625;28;6836;-72
2022/12/02 07:43:41;;;;;;;;;;;;;;;8.31;54.63;101221.75;4972793;28;6799;-72
2022/12/02 07:46:06;;;;;;;;;;;;;;;8.31;54.28;101218.31;4967915;28;6780;-71
2022/12/02 07:48:32;;;;;;;;;;;;;;;8.33;54.49;101219.31;4971783;28;6772;-72
2022/12/02 07:50:58;;;;;;;;;;;;;;;8.34;53.79;101218.53;4971922;28;6796;-72
2022/12/02 07:53:23;;;;;;;;;;;;;;;8.35;53.41;101215.19;4977666;28;6800;-71
2022/12/02 07:55:49;;;;;;;;;;;;;;;8.34;53.56;101211.72;4976805;28;6788;-71
2022/12/02 07:58:15;;;;;;;;;;;;;;;8.32;54.80;101209.88;4972378;28;6796;-72
2022/12/02 08:00:40;;;;;;;;;;;;;;;8.33;54.46;101206.53;4954880;28;9387;-71
2022/12/02 08:03:06;;;;;;;;;;;;;;;8.31;54.16;101208.09;4966548;28;6780;-71
2022/12/02 08:05:32;;;;;;;;;;;;;;;8.31;54.31;101208.09;4963830;28;8747;-72
2022/12/02 08:07:57;;;;;;;;;;;;;;;8.32;54.00;101200.53;4970085;28;6959;-72
2022/12/02 08:10:24;;;;;;;;;;;;;;;8.34;54.92;101203.19;4973223;28;6764;-71
2022/12/02 08:12:50;;;;;;;;;;;;;;;8.36;53.66;101199.06;4974563;28;6863;-72
2022/12/02 08:15:15;;;;;;;;;;;;;;;8.37;54.34;101205.97;4973054;28;6788;-71
2022/12/02 08:17:42;;;;;;;;;;;;;;;8.37;54.30;101205.09;4993522;28;7666;-72
2022/12/02 08:20:11;;;;;;;;;;;;;;;8.34;54.09;101203.19;4977756;28;6991;-72
2022/12/02 08:22:36;;;;;;;;;;;;;;;8.32;54.34;101207.31;4970599;28;6827;-71
2022/12/02 08:25:04;;;;;;;;;;;;;;;8.31;53.83;101201.31;4976161;28;6780;-73
2022/12/02 08:27:30;;;;;;;;;;;;;;;8.33;55.03;101201.44;4975137;28;8012;-74
2022/12/02 08:29:55;;;;;;;;;;;;;;;8.36;54.26;101208.44;4977097;28;6804;-74
2022/12/02 08:32:21;;;;;;;;;;;;;;;8.36;53.91;101201.63;4974898;28;6772;-72
2022/12/02 08:34:47;;;;;;;;;;;;;;;8.34;54.27;101204.06;4974591;28;6800;-72
2022/12/02 08:37:12;;;;;;;;;;;;;;;8.36;54.11;101208.44;4976253;28;6764;-72
2022/12/02 08:39:39;;;;;;;;;;;;;;;8.36;54.13;101205.88;4972183;28;6863;-72
2022/12/02 08:42:06;;;;;;;;;;;;;;;8.36;55.23;101201.63;4976351;28;6820;-71
2022/12/02 08:44:32;;;;;;;;;;;;;;;8.38;55.07;101205.19;4975720;28;6930;-72
2022/12/02 08:46:58;;;;;;;;;;;;;;;8.38;53.96;101206.84;4978000;28;7238;-72
2022/12/02 08:49:25;;;;;;;;;;;;;;;8.38;54.76;101206.84;4990451;28;6938;-72
2022/12/02 08:51:51;;;;;;;;;;;;;;;8.37;55.43;101203.41;4980034;28;6860;-72
2022/12/02 08:54:16;;;;;;;;;;;;;;;8.41;54.06;101207.06;4977541;28;6800;-71
2022/12/02 08:56:43;;;;;;;;;;;;;;;8.42;54.85;101206.28;4974883;28;6772;-71
2022/12/02 08:59:09;;;;;;;;;;;;;;;8.42;54.60;101204.63;4975535;28;6803;-71
2022/12/02 09:01:35;;;;;;;;;;;;;;;8.42;54.75;101204.63;4977959;28;7248;-72
2022/12/02 09:04:01;;;;;;;;;;;;;;;8.40;54.46;101203.63;4982745;28;6776;-72
2022/12/02 09:06:26;;;;;;;;;;;;;;;8.39;54.57;101201.84;4976115;28;7210;-71
2022/12/02 09:08:52;;;;;;;;;;;;;;;8.37;54.82;101200.84;4990472;28;6955;-72
2022/12/02 09:11:18;;;;;;;;;;;;;;;8.37;54.83;101203.41;4994050;28;7852;-71
2022/12/02 09:13:44;;;;;;;;;;;;;;;8.36;55.37;101195.66;4972329;28;6796;-72
2022/12/02 09:16:09;;;;;;;;;;;;;;;8.35;55.22;101199.84;4973589;28;6760;-72
2022/12/02 09:18:35;;;;;;;;;;;;;;;8.37;54.28;101200.84;4974805;28;6851;-71
2022/12/02 09:21:01;;;;;;;;;;;;;;;8.38;55.17;101194.09;4970422;28;6772;-72
2022/12/02 09:23:27;;;;;;;;;;;;;;;8.38;55.48;101206.84;4970603;28;7145;-72
2022/12/02 09:25:53;;;;;;;;;;;;;;;8.37;55.12;101199.97;4975756;28;6800;-71
2022/12/02 09:28:21;;;;;;;;;;;;;;;8.34;54.94;101198.09;4970046;28;6767;-71
2022/12/02 09:30:47;;;;;;;;;;;;;;;8.33;54.88;101193.75;4975984;28;6860;-72
2022/12/02 09:33:13;;;;;;;;;;;;;;;8.33;54.46;101196.31;4967635;28;6792;-71
2022/12/02 09:35:38;;;;;;;;;;;;;;;8.33;54.52;101186.97;4968227;28;6803;-72
2022/12/02 09:38:04;;;;;;;;;;;;;;;8.33;55.40;101191.22;4975066;28;7005;-71
2022/12/02 09:40:32;;;;;;;;;;;;;;;8.32;54.82;101184.34;4982301;28;6852;-72
2022/12/02 09:42:59;;;;;;;;;;;;;;;8.33;55.12;101191.22;4975157;28;6804;-71
2022/12/02 09:45:25;;;;;;;;;;;;;;;8.34;56.04;101190.44;4995774;28;6875;-72
2022/12/02 09:47:53;;;;;;;;;;;;;;;8.36;56.11;101196.53;4974146;28;6776;-72
2022/12/02 09:50:19;;;;;;;;;;;;;;;8.36;56.03;101188.00;4966362;28;8420;-72
2022/12/02 09:52:46;;;;;;;;;;;;;;;8.34;54.91;101188.75;4974116;28;6807;-72
2022/12/02 09:55:19;;;;;;;;;;;;;;;8.32;54.69;101186.88;4967369;28;6796;-72
2022/12/02 09:57:46;;;;;;;;;;;;;;;8.29;55.09;101186.66;4977029;28;6863;-72
2022/12/02 10:00:17;;;;;;;;;;;;;;;8.25;54.71;101188.09;4980141;28;6867;-71
2022/12/02 10:02:50;;;;;;;;;;;;;;;8.22;56.13;101181.91;4975430;28;7023;-72
2022/12/02 10:05:22;;;;;;;;;;;;;;;8.18;55.79;101185.91;4981941;28;6991;-72
2022/12/02 10:07:50;;;;;;;;;;;;;;;8.14;54.90;101184.81;4981354;28;6824;-71
2022/12/02 10:10:22;;;;;;;;;;;;;;;8.12;56.06;101183.81;4980346;28;6807;-72
2022/12/02 10:12:48;;;;;;;;;;;;;;;8.13;55.93;101184.69;4972686;28;8014;-72
2022/12/02 10:15:20;;;;;;;;;;;;;;;8.10;56.18;101182.81;4971238;28;6816;-72
2022/12/02 10:17:46;;;;;;;;;;;;;;;8.12;55.22;101185.47;4976145;28;7017;-71
2022/12/02 10:20:30;;;;;;;;;;;;;;;8.11;55.57;101178.59;4968675;28;6799;-72
2022/12/02 10:23:22;;;;;;;;;;;;;;;8.09;56.69;101181.03;4971986;28;6807;-72
2022/12/02 10:25:57;;;;;;;;;;;;;;;8.10;56.22;101187.91;4976621;28;7133;-72
2022/12/02 10:28:30;;;;;;;;;;;;;;;8.13;56.22;101182.13;4973769;28;7277;-72
2022/12/02 10:31:00;;;;;;;;;;;;;;;8.15;55.71;101181.47;4976587;28;6808;-72
2022/12/02 10:33:28;;;;;;;;;;;;;;;8.16;56.38;101177.22;4971591;28;6800;-72
2022/12/02 10:35:57;;;;;;;;;;;;;;;8.17;56.18;101174.81;4974581;28;7454;-72
2022/12/02 10:38:36;;;;;;;;;;;;;;;8.21;57.04;101165.69;4968966;28;6800;-72
2022/12/02 10:41:14;;;;;;;;;;;;;;;8.22;56.26;101164.91;4990158;28;7196;-72
2022/12/02 10:44:00;;;;;;;;;;;;;;;8.22;56.47;101162.34;4976623;28;6777;-72
2022/12/02 10:46:28;;;;;;;;;;;;;;;8.23;56.40;101159.00;4980169;28;6807;-72
2022/12/02 10:48:53;;;;;;;;;;;;;;;8.26;56.18;101145.59;4980833;28;6871;-72
2022/12/02 10:51:20;;;;;;;;;;;;;;;8.27;56.31;101155.00;4979049;28;6784;-72
2022/12/02 10:53:56;;;;;;;;;;;;;;;8.27;56.39;101145.69;4977475;28;6824;-72
2022/12/02 10:56:22;;;;;;;;;;;;;;;8.29;56.57;101145.78;4976798;28;6808;-72
2022/12/02 10:58:51;;;;;;;;;;;;;;;8.30;56.29;101145.91;4975551;28;6804;-72
2022/12/02 11:01:21;;;;;;;;;;;;;;;8.31;55.67;101144.25;4983052;28;6806;-71
2022/12/02 11:03:47;;;;;;;;;;;;;;;8.32;56.50;101140.91;4977179;28;6871;-71
2022/12/02 11:06:17;;;;;;;;;;;;;;;8.32;56.73;101135.81;4996614;28;6863;-72
2022/12/02 11:08:48;;;;;;;;;;;;;;;8.33;56.52;101129.91;4983746;28;7576;-72
2022/12/02 11:11:37;;;;;;;;;;;;;;;8.33;56.55;101137.56;4979238;28;6828;-72
2022/12/02 11:14:11;;;;;;;;;;;;;;;8.32;56.82;101134.13;4977338;28;6847;-72
2022/12/02 11:16:36;;;;;;;;;;;;;;;8.32;56.90;101130.69;4974722;28;6884;-71
2022/12/02 11:19:39;;;;;;;;;;;;;;;8.32;55.54;101135.81;4974956;28;6918;-71
2022/12/02 11:22:58;;;;;;;;;;;;;;;8.33;56.95;101124.78;4982071;28;7264;-72
2022/12/02 11:25:42;;;;;;;;;;;;;;;8.33;56.67;101124.78;4969734;28;7622;-72
2022/12/02 11:28:16;;;;;;;;;;;;;;;8.34;56.80;101116.34;4975998;28;6788;-72
2022/12/02 11:30:46;;;;;;;;;;;;;;;8.36;56.03;101121.56;4972800;28;6788;-71
2022/12/02 11:33:33;;;;;;;;;;;;;;;8.39;56.87;101124.34;4981229;28;6939;-72
2022/12/02 11:36:12;;;;;;;;;;;;;;;8.37;56.04;101123.34;4970807;28;7007;-72
2022/12/02 11:38:50;;;;;;;;;;;;;;;8.37;56.71;101121.66;4976051;28;6792;-72
2022/12/02 11:41:49;;;;;;;;;;;;;;;8.37;56.75;101111.44;4973201;28;6964;-72
2022/12/02 11:44:28;;;;;;;;;;;;;;;8.39;55.34;101114.97;4979356;28;6812;-72
2022/12/02 11:47:00;;;;;;;;;;;;;;;8.38;56.28;101112.34;4972922;28;8475;-72
2022/12/02 11:49:40;;;;;;;;;;;;;;;8.39;55.34;101109.00;4973678;28;6864;-72
2022/12/02 11:52:23;;;;;;;;;;;;;;;8.38;56.61;101110.66;4976271;28;6980;-72
2022/12/02 11:55:03;;;;;;;;;;;;;;;8.40;55.89;101104.00;4975547;28;6812;-72
2022/12/02 11:57:42;;;;;;;;;;;;;;;8.42;56.36;101109.19;4978591;28;6976;-72
2022/12/02 12:00:26;;;;;;;;;;;;;;;8.42;55.08;101106.66;4975817;28;6811;-72
2022/12/02 12:03:14;;;;;;;;;;;;;;;8.39;56.50;101104.75;4971428;28;11212;-72
2022/12/02 12:06:02;;;;;;;;;;;;;;;8.39;55.89;101102.22;4970316;28;7593;-71
2022/12/02 12:08:27;;;;;;;;;;;;;;;8.41;56.16;101087.00;4970737;28;6824;-71
2022/12/02 12:11:16;;;;;;;;;;;;;;;8.40;55.05;101096.34;4973386;28;7209;-72
2022/12/02 12:14:12;;;;;;;;;;;;;;;8.38;55.45;101094.47;4977015;28;6922;-72
2022/12/02 12:16:42;;;;;;;;;;;;;;;8.33;56.28;101099.25;4973921;28;6991;-72
2022/12/02 12:19:10;;;;;;;;;;;;;;;8.30;55.39;101086.25;4974216;28;6796;-72
2022/12/02 12:21:41;;;;;;;;;;;;;;;8.27;54.93;101088.59;4975727;28;7264;-72
2022/12/02 12:24:25;;;;;;;;;;;;;;;8.26;55.07;101081.72;4971378;28;6816;-71
2022/12/02 12:27:02;;;;;;;;;;;;;;;8.24;56.12;101080.75;4980048;28;7319;-72
2022/12/02 12:29:37;;;;;;;;;;;;;;;8.23;56.56;101081.53;4972517;28;6812;-72
2022/12/02 12:32:04;;;;;;;;;;;;;;;8.23;56.50;101078.97;4974685;28;7913;-72
2022/12/02 12:34:30;;;;;;;;;;;;;;;8.21;56.20;101073.75;4973299;28;6954;-72
2022/12/02 12:36:56;;;;;;;;;;;;;;;8.20;56.42;101072.84;4979504;28;6784;-71
2022/12/02 12:39:22;;;;;;;;;;;;;;;8.20;55.17;101065.19;4973114;28;6764;-72
2022/12/02 12:41:48;;;;;;;;;;;;;;;8.23;56.60;101068.75;4972718;28;7070;-72
2022/12/02 12:44:13;;;;;;;;;;;;;;;8.24;55.88;101067.97;4973536;28;6784;-72
2022/12/02 12:46:40;;;;;;;;;;;;;;;8.27;55.85;101053.75;4974743;28;6788;-72
2022/12/02 12:49:05;;;;;;;;;;;;;;;8.30;55.19;101053.94;4975236;28;6788;-72
2022/12/02 12:51:32;;;;;;;;;;;;;;;8.31;55.75;101062.50;4975141;28;7228;-71
2022/12/02 12:53:57;;;;;;;;;;;;;;;8.32;55.66;101062.59;4973879;28;6856;-72
2022/12/02 12:56:23;;;;;;;;;;;;;;;8.32;55.45;101059.19;4974101;28;6879;-72
2022/12/02 12:58:49;;;;;;;;;;;;;;;8.31;55.63;101049.75;4972209;28;7159;-72
2022/12/02 13:01:16;;;;;;;;;;;;;;;8.31;55.45;101057.41;4970875;28;7047;-72
2022/12/02 13:03:41;;;;;;;;;;;;;;;8.30;54.93;101055.59;4972301;28;6844;-72
2022/12/02 13:06:07;;;;;;;;;;;;;;;8.29;55.94;101051.28;4974789;28;8205;-72
2022/12/02 13:08:33;;;;;;;;;;;;;;;8.30;55.16;101045.38;4973421;28;7225;-72
2022/12/02 13:10:58;;;;;;;;;;;;;;;8.29;56.30;101051.28;4974340;28;6935;-72
2022/12/02 13:13:24;;;;;;;;;;;;;;;8.29;55.28;101041.06;4968911;28;6772;-72
2022/12/02 13:15:50;;;;;;;;;;;;;;;8.30;55.62;101042.84;4968795;28;6926;-72